createdAt,value
2022-11-27T00:01:35.629Z,57.53
2022-11-27T00:04:03.282Z,51.22
2022-11-27T00:06:31.809Z,53.17
2022-11-27T00:09:01.719Z,63.25
2022-11-27T00:11:30.914Z,56.92
2022-11-27T00:13:58.546Z,54.92
2022-11-27T00:16:27.392Z,62.65
2022-11-27T00:18:54.641Z,64.20
2022-11-27T00:21:26.083Z,54.88
2022-11-27T00:23:55.792Z,66.50
2022-11-27T00:28:51.126Z,55.08
2022-11-27T00:31:22.506Z,48.17
2022-11-27T00:33:49.673Z,44.42
2022-11-27T00:36:16.927Z,46.95
2022-11-27T00:38:44.106Z,51.83
2022-11-27T00:41:18.478Z,54.28
2022-11-27T00:43:46.019Z,56.90
2022-11-27T00:46:28.405Z,56.80
2022-11-27T00:49:01.876Z,53.15
2022-11-27T00:51:29.705Z,59.95
2022-11-27T00:53:57.888Z,55.92
2022-11-27T00:56:31.768Z,50.40
2022-11-27T00:58:59.603Z,48.17
2022-11-27T01:01:40.894Z,53.67
2022-11-27T01:04:13.228Z,53.08
2022-11-27T01:06:41.094Z,50.15
2022-11-27T01:09:09.382Z,51.92
2022-11-27T01:11:37.493Z,50.15
2022-11-27T01:14:10.410Z,52.10
2022-11-27T01:16:42.063Z,64.25
2022-11-27T01:19:12.613Z,71.70
2022-11-27T01:21:40.992Z,52.55
2022-11-27T01:24:09.921Z,43.85
2022-11-27T01:26:37.189Z,48.15
2022-11-27T01:29:04.550Z,50.17
2022-11-27T01:31:33.935Z,49.05
2022-11-27T01:34:08.117Z,44.33
2022-11-27T01:36:35.961Z,45.15
2022-11-27T01:39:04.467Z,47.40
2022-11-27T01:41:35.718Z,49.08
2022-11-27T01:44:23.263Z,42.53
2022-11-27T01:47:11.364Z,48.78
2022-11-27T01:49:48.065Z,51.53
2022-11-27T01:52:33.587Z,43.20
2022-11-27T01:55:29.163Z,54.80
2022-11-27T01:58:09.059Z,56.75
2022-11-27T02:00:38.109Z,53.97
2022-11-27T02:03:05.831Z,43.92
2022-11-27T02:05:33.070Z,42.30
2022-11-27T02:08:06.971Z,50.60
2022-11-27T02:10:55.554Z,49.30
2022-11-27T02:13:47.727Z,53.00
2022-11-27T02:16:39.423Z,74.65
2022-11-27T02:19:12.371Z,81.07
2022-11-27T02:21:55.902Z,74.68
2022-11-27T02:24:55.990Z,63.97
2022-11-27T02:27:47.687Z,68.13
2022-11-27T02:30:15.328Z,48.60
2022-11-27T02:32:48.994Z,51.97
2022-11-27T02:35:27.589Z,54.92
2022-11-27T02:38:25.125Z,54.75
2022-11-27T02:41:16.919Z,44.58
2022-11-27T02:43:49.670Z,48.97
2022-11-27T02:46:19.340Z,48.80
2022-11-27T02:51:36.738Z,63.17
2022-11-27T02:54:10.386Z,53.88
2022-11-27T02:56:40.361Z,56.33
2022-11-27T02:59:12.046Z,47.22
2022-11-27T03:01:50.168Z,49.42
2022-11-27T03:04:28.265Z,42.92
2022-11-27T03:07:04.339Z,43.42
2022-11-27T03:09:41.368Z,42.20
2022-11-27T03:12:11.209Z,36.65
2022-11-27T03:14:41.163Z,42.60
2022-11-27T03:17:23.765Z,38.25
2022-11-27T03:20:26.758Z,40.50
2022-11-27T03:22:55.198Z,38.78
2022-11-27T03:25:23.477Z,38.47
2022-11-27T03:27:58.520Z,39.28
2022-11-27T03:30:25.752Z,40.10
2022-11-27T03:32:53.017Z,41.42
2022-11-27T03:35:25.087Z,43.47
2022-11-27T03:37:53.454Z,48.58
2022-11-27T03:40:27.282Z,55.97
2022-11-27T03:43:13.990Z,51.10
2022-11-27T03:46:25.543Z,45.60
2022-11-27T03:49:14.426Z,42.33
2022-11-27T03:52:19.326Z,37.00
2022-11-27T03:55:20.482Z,38.80
2022-11-27T03:57:53.130Z,33.47
2022-11-27T04:00:20.875Z,35.10
2022-11-27T04:02:53.022Z,31.67
2022-11-27T04:05:20.925Z,36.55
2022-11-27T04:07:48.440Z,30.40
2022-11-27T04:10:15.866Z,30.65
2022-11-27T04:12:43.124Z,39.88
2022-11-27T04:15:11.176Z,40.97
2022-11-27T04:17:38.688Z,39.75
2022-11-27T04:20:07.434Z,37.67
2022-11-27T04:22:34.882Z,33.55
2022-11-27T04:25:02.139Z,34.63
2022-11-27T04:27:29.381Z,39.25
2022-11-27T04:29:56.557Z,37.83
2022-11-27T04:32:24.025Z,35.92
2022-11-27T04:34:51.232Z,50.67
2022-11-27T04:37:18.361Z,59.47
2022-11-27T04:39:45.498Z,50.25
2022-11-27T04:42:12.558Z,48.25
2022-11-27T04:44:39.784Z,37.47
2022-11-27T04:47:07.237Z,38.05
2022-11-27T04:49:34.566Z,47.70
2022-11-27T04:52:02.049Z,48.05
2022-11-27T04:54:29.170Z,44.67
2022-11-27T04:56:56.534Z,40.22
2022-11-27T04:59:23.677Z,44.72
2022-11-27T05:01:50.870Z,45.05
2022-11-27T05:04:18.051Z,52.33
2022-11-27T05:06:45.264Z,51.53
2022-11-27T05:09:13.017Z,61.78
2022-11-27T05:11:40.251Z,58.72
2022-11-27T05:14:17.557Z,61.55
2022-11-27T05:16:50.762Z,57.55
2022-11-27T05:19:20.975Z,61.58
2022-11-27T05:21:49.087Z,56.95
2022-11-27T05:24:18.185Z,58.60
2022-11-27T05:26:45.717Z,60.60
2022-11-27T05:29:14.092Z,60.38
2022-11-27T05:31:42.390Z,70.75
2022-11-27T05:34:10.318Z,63.42
2022-11-27T05:36:38.079Z,56.90
2022-11-27T05:39:07.945Z,46.67
2022-11-27T05:44:03.838Z,55.50
2022-11-27T05:46:31.244Z,59.80
2022-11-27T05:48:58.384Z,58.08
2022-11-27T05:51:25.544Z,53.05
2022-11-27T05:53:52.689Z,52.95
2022-11-27T05:56:19.897Z,48.08
2022-11-27T05:58:48.641Z,52.10
2022-11-27T06:01:17.906Z,50.58
2022-11-27T06:03:45.355Z,48.05
2022-11-27T06:06:16.490Z,51.88
2022-11-27T06:08:44.138Z,63.28
2022-11-27T06:11:16.194Z,65.63
2022-11-27T06:13:44.692Z,65.47
2022-11-27T06:16:22.189Z,56.28
2022-11-27T06:18:54.847Z,50.72
2022-11-27T06:21:23.629Z,59.55
2022-11-27T06:23:55.107Z,54.28
2022-11-27T06:26:31.564Z,79.25
2022-11-27T06:29:00.616Z,67.28
2022-11-27T06:31:31.121Z,67.68
2022-11-27T06:33:59.100Z,68.15
2022-11-27T06:36:34.318Z,64.38
2022-11-27T06:39:04.136Z,58.80
2022-11-27T06:44:00.741Z,59.00
2022-11-27T06:46:29.451Z,55.20
2022-11-27T06:48:58.056Z,53.63
2022-11-27T06:51:29.562Z,62.65
2022-11-27T06:53:58.125Z,50.83
2022-11-27T06:56:28.510Z,59.83
2022-11-27T06:58:58.771Z,59.38
2022-11-27T07:01:28.408Z,52.33
2022-11-27T07:06:25.990Z,48.45
2022-11-27T07:08:54.727Z,58.20
2022-11-27T07:11:26.278Z,60.90
2022-11-27T07:13:57.037Z,50.42
2022-11-27T07:16:25.615Z,43.67
2022-11-27T07:18:57.453Z,44.58
2022-11-27T07:21:25.238Z,60.17
2022-11-27T07:23:52.427Z,47.33
2022-11-27T07:26:27.075Z,48.05
2022-11-27T07:28:54.954Z,55.70
2022-11-27T07:31:28.337Z,68.70
2022-11-27T07:33:56.639Z,49.42
2022-11-27T07:36:28.182Z,41.55
2022-11-27T07:38:55.868Z,58.92
2022-11-27T07:41:23.340Z,59.72
2022-11-27T07:43:50.595Z,57.03
2022-11-27T07:46:22.348Z,64.13
2022-11-27T07:48:49.719Z,59.67
2022-11-27T07:51:20.817Z,47.88
2022-11-27T07:53:51.282Z,43.13
2022-11-27T07:56:19.274Z,50.90
2022-11-27T07:58:47.282Z,54.20
2022-11-27T08:01:17.306Z,59.28
2022-11-27T08:03:45.082Z,64.97
2022-11-27T08:06:30.527Z,100.50
2022-11-27T08:08:57.732Z,86.60
2022-11-27T08:11:32.550Z,83.53
2022-11-27T08:14:06.136Z,67.18
2022-11-27T08:16:35.344Z,64.68
2022-11-27T08:19:03.455Z,62.50
2022-11-27T08:21:30.765Z,55.63
2022-11-27T08:23:58.240Z,55.60
2022-11-27T08:26:29.073Z,50.17
2022-11-27T08:28:57.470Z,56.53
2022-11-27T08:31:25.281Z,50.97
2022-11-27T08:33:52.794Z,59.05
2022-11-27T08:36:20.208Z,75.75
2022-11-27T08:38:47.547Z,74.43
2022-11-27T08:41:14.868Z,60.33
2022-11-27T08:43:42.038Z,61.25
2022-11-27T08:46:10.191Z,51.45
2022-11-27T08:48:37.508Z,48.72
2022-11-27T08:51:11.013Z,30.83
2022-11-27T08:53:38.936Z,36.58
2022-11-27T08:56:18.291Z,38.33
2022-11-27T08:58:46.470Z,32.50
2022-11-27T09:01:19.994Z,34.58
2022-11-27T09:03:47.902Z,42.83
2022-11-27T09:06:19.307Z,38.40
2022-11-27T09:08:46.764Z,49.35
2022-11-27T09:11:16.174Z,50.65
2022-11-27T09:13:44.535Z,47.15
2022-11-27T09:16:18.884Z,47.47
2022-11-27T09:18:48.959Z,52.15
2022-11-27T09:21:19.867Z,52.83
2022-11-27T09:23:47.134Z,50.97
2022-11-27T09:26:16.576Z,39.28
2022-11-27T09:28:44.590Z,51.72
2022-11-27T09:31:15.269Z,62.80
2022-11-27T09:33:43.707Z,53.85
2022-11-27T09:36:22.079Z,57.13
2022-11-27T09:38:49.945Z,68.65
2022-11-27T09:41:44.623Z,61.58
2022-11-27T09:44:28.868Z,64.40
2022-11-27T09:47:04.524Z,61.67
2022-11-27T09:49:46.278Z,64.10
2022-11-27T09:52:41.082Z,74.90
2022-11-27T09:55:22.600Z,67.90
2022-11-27T09:58:18.103Z,47.97
2022-11-27T10:00:47.561Z,65.97
2022-11-27T10:03:20.920Z,55.15
2022-11-27T10:06:05.490Z,67.40
2022-11-27T10:09:12.113Z,67.45
2022-11-27T10:11:57.530Z,69.22
2022-11-27T10:15:15.462Z,68.25
2022-11-27T10:18:27.826Z,75.63
2022-11-27T10:21:31.059Z,64.57
2022-11-27T10:24:24.250Z,68.07
2022-11-27T10:26:56.529Z,61.78
2022-11-27T10:29:55.171Z,72.68
2022-11-27T10:32:55.247Z,52.40
2022-11-27T10:35:28.510Z,61.78
2022-11-27T10:38:24.591Z,57.72
2022-11-27T10:41:48.926Z,63.97
2022-11-27T10:44:54.150Z,65.65
2022-11-27T10:47:23.624Z,43.92
2022-11-27T10:52:19.697Z,42.92
2022-11-27T10:55:03.100Z,44.78
2022-11-27T10:58:07.266Z,42.25
2022-11-27T11:00:34.456Z,42.22
2022-11-27T11:03:06.691Z,37.08
2022-11-27T11:06:11.578Z,43.42
2022-11-27T11:08:24.709Z,42.63
2022-11-27T11:11:01.283Z,33.75
2022-11-27T11:13:45.456Z,46.22
2022-11-27T11:16:24.615Z,47.05
2022-11-27T11:18:55.164Z,37.83
2022-11-27T11:21:38.125Z,37.40
2022-11-27T11:24:10.109Z,35.63
2022-11-27T11:26:49.675Z,60.03
2022-11-27T11:32:36.661Z,38.95
2022-11-27T11:35:25.672Z,42.03
2022-11-27T11:37:53.313Z,37.92
2022-11-27T11:40:29.613Z,34.75
2022-11-27T11:43:19.176Z,34.83
2022-11-27T11:45:48.271Z,31.88
2022-11-27T11:48:28.134Z,33.45
2022-11-27T11:51:19.145Z,30.10
2022-11-27T11:54:23.193Z,32.72
2022-11-27T11:56:52.025Z,34.42
2022-11-27T11:59:54.297Z,35.70
2022-11-27T12:02:48.290Z,34.13
2022-11-27T12:05:47.927Z,37.13
2022-11-27T12:11:28.331Z,30.45
2022-11-27T12:14:04.711Z,37.40
2022-11-27T12:17:04.761Z,38.25
2022-11-27T12:20:08.767Z,35.08
2022-11-27T12:23:06.722Z,32.50
2022-11-27T12:25:55.893Z,35.05
2022-11-27T12:28:48.928Z,28.80
2022-11-27T12:31:44.749Z,32.58
2022-11-27T12:34:48.106Z,30.55
2022-11-27T12:37:33.707Z,37.95
2022-11-27T12:40:42.147Z,36.20
2022-11-27T12:43:28.348Z,57.33
2022-11-27T12:46:09.449Z,37.08
2022-11-27T12:49:04.897Z,34.85
2022-11-27T12:51:40.708Z,31.77
2022-11-27T12:54:54.740Z,33.15
2022-11-27T12:57:51.084Z,26.98
2022-11-27T13:00:22.615Z,29.73
2022-11-27T13:03:21.302Z,29.58
2022-11-27T13:06:08.104Z,30.50
2022-11-27T13:09:00.955Z,27.20
2022-11-27T13:11:40.054Z,19.55
2022-11-27T13:14:19.837Z,12.57
2022-11-27T13:17:15.128Z,13.65
2022-11-27T13:19:49.557Z,14.70
2022-11-27T13:22:27.967Z,12.98
2022-11-27T13:24:59.981Z,8.00
2022-11-27T13:27:31.029Z,9.20
2022-11-27T13:30:08.207Z,11.23
2022-11-27T13:32:43.071Z,16.73
2022-11-27T13:35:41.947Z,17.20
2022-11-27T13:38:24.716Z,20.23
2022-11-27T13:40:55.487Z,22.98
2022-11-27T13:43:38.990Z,35.63
2022-11-27T13:46:17.474Z,19.75
2022-11-27T13:48:53.323Z,22.20
2022-11-27T13:51:34.150Z,23.85
2022-11-27T13:54:18.820Z,20.17
2022-11-27T13:56:47.323Z,24.38
2022-11-27T13:59:20.499Z,23.80
2022-11-27T14:02:06.438Z,40.53
2022-11-27T14:04:35.172Z,24.83
2022-11-27T14:07:10.789Z,26.03
2022-11-27T14:09:57.873Z,20.58
2022-11-27T14:12:30.837Z,20.25
2022-11-27T14:15:24.269Z,17.73
2022-11-27T14:18:04.118Z,25.85
2022-11-27T14:20:34.585Z,26.83
2022-11-27T14:23:17.265Z,30.05
2022-11-27T14:25:44.481Z,30.05
2022-11-27T14:28:15.704Z,34.92
2022-11-27T14:31:05.240Z,32.83
2022-11-27T14:36:29.617Z,43.17
2022-11-27T14:39:00.013Z,48.13
2022-11-27T14:41:28.568Z,43.30
2022-11-27T14:44:05.144Z,43.85
2022-11-27T14:46:37.230Z,49.05
2022-11-27T14:49:04.586Z,50.28
2022-11-27T14:51:35.107Z,49.78
2022-11-27T14:54:13.205Z,45.17
2022-11-27T14:56:43.136Z,44.35
2022-11-27T14:59:17.454Z,36.55
2022-11-27T15:01:48.502Z,43.75
2022-11-27T15:04:37.489Z,48.90
2022-11-27T15:07:23.701Z,64.07
2022-11-27T15:09:55.475Z,43.30
2022-11-27T15:12:46.671Z,47.63
2022-11-27T15:15:22.116Z,48.25
2022-11-27T15:17:54.679Z,44.47
2022-11-27T15:20:43.873Z,46.13
2022-11-27T15:23:25.374Z,62.55
2022-11-27T15:26:18.833Z,60.15
2022-11-27T15:28:56.499Z,54.17
2022-11-27T15:31:34.967Z,50.42
2022-11-27T15:34:17.203Z,58.97
2022-11-27T15:36:48.945Z,67.93
2022-11-27T15:39:25.198Z,53.75
2022-11-27T15:42:01.634Z,62.25
2022-11-27T15:44:31.950Z,61.90
2022-11-27T15:47:04.515Z,58.38
2022-11-27T15:49:31.798Z,58.97
2022-11-27T15:51:59.127Z,60.15
2022-11-27T15:54:26.319Z,61.45
2022-11-27T15:56:53.643Z,59.78
2022-11-27T15:59:21.202Z,64.68
2022-11-27T16:01:48.885Z,65.53
2022-11-27T16:04:16.593Z,60.22
2022-11-27T16:06:43.916Z,55.92
2022-11-27T16:09:10.983Z,67.63
2022-11-27T16:11:38.576Z,114.65
2022-11-27T16:14:05.821Z,112.25
2022-11-27T16:16:33.183Z,109.90
2022-11-27T16:19:01.388Z,105.97
2022-11-27T16:21:30.146Z,118.32
2022-11-27T16:24:02.845Z,130.23
2022-11-27T16:26:31.069Z,166.25
2022-11-27T16:28:58.710Z,163.02
2022-11-27T16:31:26.775Z,171.30
2022-11-27T16:33:54.377Z,154.90
2022-11-27T16:36:24.509Z,153.90
2022-11-27T16:38:54.163Z,131.80
2022-11-27T16:41:24.763Z,111.60
2022-11-27T16:43:56.557Z,99.35
2022-11-27T16:46:30.076Z,96.80
2022-11-27T16:49:00.138Z,92.60
2022-11-27T16:51:33.326Z,82.45
2022-11-27T16:54:07.062Z,53.83
2022-11-27T16:56:37.839Z,60.08
2022-11-27T16:59:11.142Z,64.18
2022-11-27T17:01:40.892Z,70.20
2022-11-27T17:04:15.559Z,71.75
2022-11-27T17:06:42.816Z,56.50
2022-11-27T17:09:10.206Z,47.08
2022-11-27T17:11:43.361Z,48.97
2022-11-27T17:14:11.244Z,63.17
2022-11-27T17:16:40.910Z,55.03
2022-11-27T17:19:13.190Z,47.88
2022-11-27T17:21:41.721Z,44.38
2022-11-27T17:24:16.151Z,48.72
2022-11-27T17:26:47.146Z,51.47
2022-11-27T17:29:18.851Z,57.75
2022-11-27T17:31:46.215Z,50.25
2022-11-27T17:34:15.579Z,51.15
2022-11-27T17:36:45.282Z,56.65
2022-11-27T17:39:14.838Z,53.17
2022-11-27T17:41:44.502Z,55.22
2022-11-27T17:46:39.459Z,79.13
2022-11-27T17:49:07.285Z,80.95
2022-11-27T17:51:37.143Z,61.45
2022-11-27T17:56:34.087Z,55.33
2022-11-27T17:59:01.743Z,63.47
2022-11-27T18:01:30.493Z,64.72
2022-11-27T18:04:00.724Z,64.95
2022-11-27T18:06:31.329Z,77.88
2022-11-27T18:08:59.646Z,75.70
2022-11-27T18:11:31.458Z,83.75
2022-11-27T18:14:02.802Z,88.63
2022-11-27T18:16:35.500Z,100.80
2022-11-27T18:19:06.909Z,111.80
2022-11-27T18:21:34.864Z,91.78
2022-11-27T18:29:42.280Z,77.97
2022-11-27T18:32:11.878Z,94.65
2022-11-27T18:34:39.989Z,93.47
2022-11-27T18:37:07.761Z,86.22
2022-11-27T18:39:36.252Z,66.40
2022-11-27T18:42:05.311Z,80.57
2022-11-27T18:44:37.259Z,77.93
2022-11-27T18:47:09.606Z,82.72
2022-11-27T18:49:38.916Z,76.45
2022-11-27T18:52:07.224Z,64.45
2022-11-27T18:54:36.584Z,81.22
2022-11-27T18:57:06.355Z,69.28
2022-11-27T18:59:34.582Z,83.80
2022-11-27T19:02:03.535Z,76.93
2022-11-27T19:04:30.727Z,112.30
2022-11-27T19:06:57.824Z,94.68
2022-11-27T19:09:25.376Z,106.72
2022-11-27T19:11:53.365Z,118.90
2022-11-27T19:14:20.535Z,97.35
2022-11-27T19:16:48.083Z,91.30
2022-11-27T19:22:10.866Z,67.95
2022-11-27T19:24:40.047Z,68.25
2022-11-27T19:27:07.485Z,64.93
2022-11-27T19:29:35.138Z,67.57
2022-11-27T19:32:02.456Z,74.07
2022-11-27T19:34:29.683Z,70.55
2022-11-27T19:36:57.641Z,59.25
2022-11-27T19:39:26.558Z,67.00
2022-11-27T19:41:53.893Z,66.75
2022-11-27T19:44:21.196Z,69.38
2022-11-27T19:46:48.457Z,63.28
2022-11-27T19:49:17.315Z,65.93
2022-11-27T19:51:46.721Z,67.18
2022-11-27T19:54:16.326Z,71.03
2022-11-27T19:56:44.024Z,58.47
2022-11-27T19:59:12.655Z,53.88
2022-11-27T20:01:41.246Z,68.40
2022-11-27T20:04:12.395Z,58.55
2022-11-27T20:06:40.514Z,61.03
2022-11-27T20:09:08.494Z,63.58
2022-11-27T20:11:36.540Z,53.33
2022-11-27T20:14:05.638Z,63.63
2022-11-27T20:16:35.511Z,54.43
2022-11-27T20:21:35.884Z,54.45
2022-11-27T20:24:04.174Z,58.85
2022-11-27T20:26:31.377Z,54.60
2022-11-27T20:29:00.479Z,56.63
2022-11-27T20:31:32.383Z,53.63
2022-11-27T20:34:03.807Z,50.53
2022-11-27T20:36:34.776Z,54.28
2022-11-27T20:39:03.199Z,63.97
2022-11-27T20:41:30.814Z,66.80
2022-11-27T20:44:01.180Z,66.60
2022-11-27T20:46:29.810Z,74.40
2022-11-27T20:48:59.120Z,60.50
2022-11-27T20:51:33.166Z,64.90
2022-11-27T20:54:08.720Z,54.25
2022-11-27T20:59:04.612Z,55.35
2022-11-27T21:01:35.109Z,52.50
2022-11-27T21:04:09.729Z,59.55
2022-11-27T21:06:43.484Z,48.50
2022-11-27T21:09:13.158Z,53.80
2022-11-27T21:11:41.657Z,45.17
2022-11-27T21:14:12.668Z,45.13
2022-11-27T21:16:46.339Z,46.30
2022-11-27T21:19:19.501Z,44.00
2022-11-27T21:21:47.057Z,56.03
2022-11-27T21:24:14.892Z,52.17
2022-11-27T21:26:42.884Z,54.75
2022-11-27T21:29:11.983Z,55.50
2022-11-27T21:31:45.146Z,51.40
2022-11-27T21:34:14.743Z,53.22
2022-11-27T21:36:41.918Z,62.55
2022-11-27T21:39:12.282Z,58.88
2022-11-27T21:41:39.789Z,56.00
2022-11-27T21:44:07.603Z,61.80
2022-11-27T21:46:35.712Z,61.08
2022-11-27T21:49:05.682Z,60.33
2022-11-27T21:51:33.073Z,62.10
2022-11-27T21:54:07.947Z,58.50
2022-11-27T21:56:37.847Z,64.57
2022-11-27T21:59:07.239Z,58.65
2022-11-27T22:01:34.760Z,53.35
2022-11-27T22:04:02.117Z,56.35
2022-11-27T22:06:35.402Z,69.40
2022-11-27T22:09:03.738Z,62.13
2022-11-27T22:11:30.931Z,57.20
2022-11-27T22:14:06.122Z,60.10
2022-11-27T22:16:42.944Z,46.53
2022-11-27T22:19:13.571Z,46.28
2022-11-27T22:21:41.769Z,48.63
2022-11-27T22:24:14.851Z,51.10
2022-11-27T22:26:45.573Z,42.28
2022-11-27T22:29:13.746Z,43.05
2022-11-27T22:31:40.863Z,56.63
2022-11-27T22:34:08.009Z,41.78
2022-11-27T22:36:35.372Z,53.75
2022-11-27T22:39:06.557Z,47.53
2022-11-27T22:41:37.019Z,55.30
2022-11-27T22:44:10.306Z,58.67
2022-11-27T22:46:40.633Z,41.00
2022-11-27T22:49:11.712Z,47.22
2022-11-27T22:51:39.427Z,44.70
2022-11-27T22:54:09.720Z,46.10
2022-11-27T22:56:37.239Z,49.53
2022-11-27T22:59:30.983Z,45.00
2022-11-27T23:01:53.841Z,44.65
2022-11-27T23:04:21.351Z,49.97
2022-11-27T23:06:48.952Z,45.33
2022-11-27T23:09:18.290Z,48.75
2022-11-27T23:11:46.187Z,44.87
2022-11-27T23:14:13.414Z,47.35
2022-11-27T23:16:40.980Z,40.85
2022-11-27T23:19:09.410Z,43.10
2022-11-27T23:21:38.102Z,38.92
2022-11-27T23:24:07.424Z,38.53
2022-11-27T23:26:35.120Z,36.88
2022-11-27T23:29:02.956Z,38.83
2022-11-27T23:31:35.649Z,40.78
2022-11-27T23:34:07.456Z,43.60
2022-11-27T23:36:35.516Z,36.15
2022-11-27T23:39:05.300Z,35.00
2022-11-27T23:41:32.933Z,35.70
2022-11-27T23:44:00.881Z,33.97
2022-11-27T23:46:29.621Z,30.42
2022-11-27T23:48:59.513Z,30.77
2022-11-27T23:51:30.272Z,34.83
2022-11-27T23:53:58.728Z,33.47
2022-11-27T23:56:31.428Z,26.90
2022-11-27T23:58:59.514Z,34.75
